sensor_id;sensor_type;location;lat;lon;timestamp;pressure;altitude;pressure_sealevel;temperature;humidity
64933;BME280;51446;53.850;10.662;2023-01-23T00:00:20;103535.72;;;2.22;100.00
64933;BME280;51446;53.850;10.662;2023-01-23T00:02:46;103528.66;;;2.30;100.00
64933;BME280;51446;53.850;10.662;2023-01-23T00:05:11;103524.72;;;2.25;100.00
64933;BME280;51446;53.850;10.662;2023-01-23T00:07:36;103527.03;;;2.22;100.00
64933;BME280;51446;53.850;10.662;2023-01-23T00:10:01;103535.72;;;2.22;100.00
64933;BME280;51446;53.850;10.662;2023-01-23T00:12:27;103532.59;;;2.35;100.00
64933;BME280;51446;53.850;10.662;2023-01-23T00:14:52;103532.84;;;2.19;100.00
64933;BME280;51446;53.850;10.662;2023-01-23T00:17:17;103539.34;;;2.24;100.00
64933;BME280;51446;53.850;10.662;2023-01-23T00:19:43;103531.44;;;2.23;100.00
64933;BME280;51446;53.850;10.662;2023-01-23T00:22:08;103540.88;;;2.22;100.00
64933;BME280;51446;53.850;10.662;2023-01-23T00:24:33;103547.56;;;2.29;100.00
64933;BME280;51446;53.850;10.662;2023-01-23T00:26:58;103547.91;;;2.23;100.00
64933;BME280;51446;53.850;10.662;2023-01-23T00:29:24;103549.56;;;2.23;100.00
64933;BME280;51446;53.850;10.662;2023-01-23T00:31:49;103557.59;;;2.26;100.00
64933;BME280;51446;53.850;10.662;2023-01-23T00:34:14;103552.94;;;2.22;100.00
64933;BME280;51446;53.850;10.662;2023-01-23T00:36:42;103557.03;;;2.20;100.00
64933;BME280;51446;53.850;10.662;2023-01-23T00:39:12;103549.13;;;2.18;100.00
64933;BME280;51446;53.850;10.662;2023-01-23T00:41:38;103547.75;;;2.22;100.00
64933;BME280;51446;53.850;10.662;2023-01-23T00:44:04;103550.28;;;2.31;100.00
64933;BME280;51446;53.850;10.662;2023-01-23T00:46:29;103555.66;;;2.23;100.00
64933;BME280;51446;53.850;10.662;2023-01-23T00:48:54;103550.47;;;2.23;100.00
64933;BME280;51446;53.850;10.662;2023-01-23T00:51:19;103552.59;;;2.19;100.00
64933;BME280;51446;53.850;10.662;2023-01-23T00:53:45;103544.84;;;2.19;100.00
64933;BME280;51446;53.850;10.662;2023-01-23T00:56:11;103550.56;;;2.34;100.00
64933;BME280;51446;53.850;10.662;2023-01-23T00:58:36;103551.94;;;2.30;100.00
64933;BME280;51446;53.850;10.662;2023-01-23T01:01:01;103555.91;;;2.35;100.00
64933;BME280;51446;53.850;10.662;2023-01-23T01:03:27;103559.53;;;2.37;100.00
64933;BME280;51446;53.850;10.662;2023-01-23T01:05:52;103551.16;;;2.40;100.00
64933;BME280;51446;53.850;10.662;2023-01-23T01:08:17;103555.94;;;2.27;100.00
64933;BME280;51446;53.850;10.662;2023-01-23T01:10:43;103559.44;;;2.27;100.00
64933;BME280;51446;53.850;10.662;2023-01-23T01:13:09;103557.78;;;2.19;100.00
64933;BME280;51446;53.850;10.662;2023-01-23T01:15:35;103559.94;;;2.14;100.00
64933;BME280;51446;53.850;10.662;2023-01-23T01:18:00;103560.88;;;2.15;100.00
64933;BME280;51446;53.850;10.662;2023-01-23T01:20:26;103562.53;;;2.14;100.00
64933;BME280;51446;53.850;10.662;2023-01-23T01:22:53;103561.50;;;2.12;100.00
64933;BME280;51446;53.850;10.662;2023-01-23T01:25:19;103562.25;;;2.11;100.00
64933;BME280;51446;53.850;10.662;2023-01-23T01:27:44;103568.47;;;2.13;100.00
64933;BME280;51446;53.850;10.662;2023-01-23T01:30:10;103573.50;;;2.12;100.00
64933;BME280;51446;53.850;10.662;2023-01-23T01:32:37;103573.66;;;2.13;100.00
64933;BME280;51446;53.850;10.662;2023-01-23T01:35:04;103581.59;;;2.15;100.00
64933;BME280;51446;53.850;10.662;2023-01-23T01:37:32;103586.13;;;2.17;100.00
64933;BME280;51446;53.850;10.662;2023-01-23T01:39:58;103589.00;;;2.20;100.00
64933;BME280;51446;53.850;10.662;2023-01-23T01:42:23;103594.09;;;2.47;100.00
64933;BME280;51446;53.850;10.662;2023-01-23T01:44:55;103592.47;;;2.30;100.00
64933;BME280;51446;53.850;10.662;2023-01-23T01:47:20;103593.53;;;2.32;100.00
64933;BME280;51446;53.850;10.662;2023-01-23T01:49:46;103595.56;;;2.17;100.00
64933;BME280;51446;53.850;10.662;2023-01-23T01:52:13;103584.66;;;2.11;100.00
64933;BME280;51446;53.850;10.662;2023-01-23T01:54:45;103598.34;;;2.10;100.00
64933;BME280;51446;53.850;10.662;2023-01-23T01:57:28;103595.75;;;2.10;100.00
64933;BME280;51446;53.850;10.662;2023-01-23T02:00:03;103596.50;;;2.08;100.00
64933;BME280;51446;53.850;10.662;2023-01-23T02:02:43;103596.22;;;2.05;100.00
64933;BME280;51446;53.850;10.662;2023-01-23T02:05:17;103598.94;;;2.07;100.00
64933;BME280;51446;53.850;10.662;2023-01-23T02:08:04;103597.59;;;2.11;100.00
64933;BME280;51446;53.850;10.662;2023-01-23T02:10:31;103606.56;;;2.05;100.00
64933;BME280;51446;53.850;10.662;2023-01-23T02:13:32;103614.06;;;2.02;100.00
64933;BME280;51446;53.850;10.662;2023-01-23T02:16:03;103616.63;;;2.02;100.00
64933;BME280;51446;53.850;10.662;2023-01-23T02:18:30;103617.25;;;2.00;100.00
64933;BME280;51446;53.850;10.662;2023-01-23T02:20:58;103614.66;;;2.00;100.00
64933;BME280;51446;53.850;10.662;2023-01-23T02:26:18;103614.91;;;2.12;100.00
64933;BME280;51446;53.850;10.662;2023-01-23T02:28:46;103619.09;;;2.01;100.00
64933;BME280;51446;53.850;10.662;2023-01-23T02:31:13;103621.34;;;2.06;100.00
64933;BME280;51446;53.850;10.662;2023-01-23T02:36:04;103618.78;;;1.98;100.00
64933;BME280;51446;53.850;10.662;2023-01-23T02:38:37;103619.19;;;2.11;100.00
64933;BME280;51446;53.850;10.662;2023-01-23T02:41:06;103619.50;;;2.05;100.00
64933;BME280;51446;53.850;10.662;2023-01-23T02:43:34;103620.13;;;2.03;100.00
64933;BME280;51446;53.850;10.662;2023-01-23T02:46:02;103617.09;;;1.98;100.00
64933;BME280;51446;53.850;10.662;2023-01-23T02:48:28;103629.91;;;1.97;100.00
64933;BME280;51446;53.850;10.662;2023-01-23T02:50:53;103615.25;;;1.97;100.00
64933;BME280;51446;53.850;10.662;2023-01-23T02:53:18;103626.50;;;2.52;100.00
64933;BME280;51446;53.850;10.662;2023-01-23T02:55:43;103616.19;;;2.43;100.00
64933;BME280;51446;53.850;10.662;2023-01-23T02:58:09;103613.50;;;2.60;100.00
64933;BME280;51446;53.850;10.662;2023-01-23T03:00:52;103609.16;;;2.51;100.00
64933;BME280;51446;53.850;10.662;2023-01-23T03:03:18;103609.28;;;2.52;100.00
64933;BME280;51446;53.850;10.662;2023-01-23T03:05:45;103611.31;;;2.37;100.00
64933;BME280;51446;53.850;10.662;2023-01-23T03:08:11;103608.47;;;2.25;100.00
64933;BME280;51446;53.850;10.662;2023-01-23T03:10:36;103615.00;;;2.39;100.00
64933;BME280;51446;53.850;10.662;2023-01-23T03:13:01;103612.66;;;2.15;100.00
64933;BME280;51446;53.850;10.662;2023-01-23T03:15:29;103621.56;;;2.27;100.00
64933;BME280;51446;53.850;10.662;2023-01-23T03:17:57;103619.78;;;2.54;100.00
64933;BME280;51446;53.850;10.662;2023-01-23T03:20:22;103618.88;;;2.53;100.00
64933;BME280;51446;53.850;10.662;2023-01-23T03:22:48;103614.06;;;2.39;100.00
64933;BME280;51446;53.850;10.662;2023-01-23T03:25:13;103608.50;;;2.53;100.00
64933;BME280;51446;53.850;10.662;2023-01-23T03:27:38;103611.44;;;2.75;100.00
64933;BME280;51446;53.850;10.662;2023-01-23T03:30:04;103609.56;;;2.83;100.00
64933;BME280;51446;53.850;10.662;2023-01-23T03:32:41;103611.44;;;2.48;100.00
64933;BME280;51446;53.850;10.662;2023-01-23T03:35:08;103618.16;;;2.46;100.00
64933;BME280;51446;53.850;10.662;2023-01-23T03:37:45;103614.94;;;2.48;100.00
64933;BME280;51446;53.850;10.662;2023-01-23T03:40:17;103613.97;;;2.65;100.00
64933;BME280;51446;53.850;10.662;2023-01-23T03:43:02;103619.00;;;2.64;100.00
64933;BME280;51446;53.850;10.662;2023-01-23T03:45:27;103619.25;;;2.39;100.00
64933;BME280;51446;53.850;10.662;2023-01-23T03:47:53;103620.13;;;2.48;100.00
64933;BME280;51446;53.850;10.662;2023-01-23T03:50:18;103621.16;;;2.50;100.00
64933;BME280;51446;53.850;10.662;2023-01-23T03:52:43;103628.16;;;2.23;100.00
64933;BME280;51446;53.850;10.662;2023-01-23T03:55:09;103625.16;;;2.47;100.00
64933;BME280;51446;53.850;10.662;2023-01-23T03:57:34;103626.53;;;2.06;100.00
64933;BME280;51446;53.850;10.662;2023-01-23T03:59:59;103634.78;;;2.75;100.00
64933;BME280;51446;53.850;10.662;2023-01-23T04:02:25;103628.78;;;2.12;100.00
64933;BME280;51446;53.850;10.662;2023-01-23T04:04:50;103632.78;;;1.91;100.00
64933;BME280;51446;53.850;10.662;2023-01-23T04:07:15;103637.38;;;1.85;100.00
64933;BME280;51446;53.850;10.662;2023-01-23T04:09:40;103646.03;;;1.85;100.00
64933;BME280;51446;53.850;10.662;2023-01-23T04:12:06;103635.13;;;2.24;100.00
64933;BME280;51446;53.850;10.662;2023-01-23T04:14:31;103639.91;;;2.11;100.00
64933;BME280;51446;53.850;10.662;2023-01-23T04:17:01;103647.44;;;1.82;100.00
64933;BME280;51446;53.850;10.662;2023-01-23T04:19:27;103644.66;;;2.06;100.00
64933;BME280;51446;53.850;10.662;2023-01-23T04:21:52;103643.91;;;2.72;100.00
64933;BME280;51446;53.850;10.662;2023-01-23T04:24:17;103644.53;;;2.78;100.00
64933;BME280;51446;53.850;10.662;2023-01-23T04:26:43;103644.28;;;2.57;100.00
64933;BME280;51446;53.850;10.662;2023-01-23T04:29:08;103642.72;;;2.32;100.00
64933;BME280;51446;53.850;10.662;2023-01-23T04:31:34;103656.50;;;2.22;100.00
64933;BME280;51446;53.850;10.662;2023-01-23T04:33:59;103654.38;;;2.18;100.00
64933;BME280;51446;53.850;10.662;2023-01-23T04:36:24;103653.81;;;2.48;100.00
64933;BME280;51446;53.850;10.662;2023-01-23T04:38:50;103654.13;;;2.42;100.00
64933;BME280;51446;53.850;10.662;2023-01-23T04:41:21;103663.63;;;2.24;100.00
64933;BME280;51446;53.850;10.662;2023-01-23T04:43:47;103661.34;;;2.19;100.00
64933;BME280;51446;53.850;10.662;2023-01-23T04:46:12;103660.97;;;1.88;100.00
64933;BME280;51446;53.850;10.662;2023-01-23T04:48:37;103665.03;;;2.12;100.00
64933;BME280;51446;53.850;10.662;2023-01-23T04:51:03;103665.97;;;2.04;100.00
64933;BME280;51446;53.850;10.662;2023-01-23T04:53:28;103666.47;;;1.73;100.00
64933;BME280;51446;53.850;10.662;2023-01-23T04:55:53;103673.31;;;1.73;100.00
64933;BME280;51446;53.850;10.662;2023-01-23T04:58:19;103672.25;;;1.71;100.00
64933;BME280;51446;53.850;10.662;2023-01-23T05:00:45;103663.13;;;1.75;100.00
64933;BME280;51446;53.850;10.662;2023-01-23T05:03:10;103670.09;;;1.67;100.00
64933;BME280;51446;53.850;10.662;2023-01-23T05:05:36;103670.41;;;1.70;100.00
64933;BME280;51446;53.850;10.662;2023-01-23T05:08:01;103671.03;;;1.59;100.00
64933;BME280;51446;53.850;10.662;2023-01-23T05:10:27;103677.41;;;1.53;100.00
64933;BME280;51446;53.850;10.662;2023-01-23T05:12:52;103685.78;;;1.51;100.00
64933;BME280;51446;53.850;10.662;2023-01-23T05:15:17;103688.22;;;1.49;100.00
64933;BME280;51446;53.850;10.662;2023-01-23T05:17:44;103683.19;;;1.60;100.00
64933;BME280;51446;53.850;10.662;2023-01-23T05:20:10;103687.78;;;1.62;100.00
64933;BME280;51446;53.850;10.662;2023-01-23T05:22:35;103688.50;;;1.70;100.00
64933;BME280;51446;53.850;10.662;2023-01-23T05:25:00;103693.69;;;1.61;100.00
64933;BME280;51446;53.850;10.662;2023-01-23T05:27:26;103698.88;;;1.61;100.00
64933;BME280;51446;53.850;10.662;2023-01-23T05:29:51;103704.66;;;1.59;100.00
64933;BME280;51446;53.850;10.662;2023-01-23T05:32:16;103706.16;;;1.83;100.00
64933;BME280;51446;53.850;10.662;2023-01-23T05:34:42;103709.38;;;1.89;100.00
64933;BME280;51446;53.850;10.662;2023-01-23T05:37:07;103705.41;;;1.75;100.00
64933;BME280;51446;53.850;10.662;2023-01-23T05:39:32;103708.00;;;1.66;100.00
64933;BME280;51446;53.850;10.662;2023-01-23T05:41:58;103711.66;;;1.68;100.00
64933;BME280;51446;53.850;10.662;2023-01-23T05:44:23;103724.28;;;1.65;100.00
64933;BME280;51446;53.850;10.662;2023-01-23T05:46:48;103725.22;;;1.66;100.00
64933;BME280;51446;53.850;10.662;2023-01-23T05:49:14;103721.41;;;1.62;100.00
64933;BME280;51446;53.850;10.662;2023-01-23T05:51:39;103727.94;;;1.59;100.00
64933;BME280;51446;53.850;10.662;2023-01-23T05:54:04;103728.09;;;1.69;100.00
64933;BME280;51446;53.850;10.662;2023-01-23T05:56:30;103724.63;;;1.86;100.00
64933;BME280;51446;53.850;10.662;2023-01-23T05:58:55;103724.75;;;1.87;100.00
64933;BME280;51446;53.850;10.662;2023-01-23T06:01:20;103732.69;;;1.71;100.00
64933;BME280;51446;53.850;10.662;2023-01-23T06:03:46;103738.91;;;1.56;100.00
64933;BME280;51446;53.850;10.662;2023-01-23T06:06:12;103740.53;;;1.55;100.00
64933;BME280;51446;53.850;10.662;2023-01-23T06:08:37;103739.34;;;1.52;100.00
64933;BME280;51446;53.850;10.662;2023-01-23T06:11:03;103730.84;;;1.70;100.00
64933;BME280;51446;53.850;10.662;2023-01-23T06:13:28;103742.09;;;1.71;100.00
64933;BME280;51446;53.850;10.662;2023-01-23T06:15:54;103739.66;;;1.64;100.00
64933;BME280;51446;53.850;10.662;2023-01-23T06:18:19;103747.72;;;1.76;100.00
64933;BME280;51446;53.850;10.662;2023-01-23T06:20:45;103738.31;;;1.85;100.00
64933;BME280;51446;53.850;10.662;2023-01-23T06:23:10;103740.59;;;1.73;100.00
64933;BME280;51446;53.850;10.662;2023-01-23T06:25:36;103739.06;;;1.66;100.00
64933;BME280;51446;53.850;10.662;2023-01-23T06:28:02;103740.41;;;1.54;100.00
64933;BME280;51446;53.850;10.662;2023-01-23T06:30:27;103747.41;;;1.55;100.00
64933;BME280;51446;53.850;10.662;2023-01-23T06:32:52;103747.41;;;1.46;100.00
64933;BME280;51446;53.850;10.662;2023-01-23T06:35:18;103746.78;;;1.49;100.00
64933;BME280;51446;53.850;10.662;2023-01-23T06:37:43;103740.88;;;1.50;100.00
64933;BME280;51446;53.850;10.662;2023-01-23T06:40:09;103739.47;;;1.45;100.00
64933;BME280;51446;53.850;10.662;2023-01-23T06:42:37;103744.06;;;1.47;100.00
64933;BME280;51446;53.850;10.662;2023-01-23T06:45:03;103752.56;;;1.46;100.00
64933;BME280;51446;53.850;10.662;2023-01-23T06:47:28;103756.56;;;1.60;100.00
64933;BME280;51446;53.850;10.662;2023-01-23T06:49:53;103754.28;;;1.63;100.00
64933;BME280;51446;53.850;10.662;2023-01-23T06:52:19;103752.13;;;1.59;100.00
64933;BME280;51446;53.850;10.662;2023-01-23T06:54:44;103755.59;;;1.51;100.00
64933;BME280;51446;53.850;10.662;2023-01-23T06:57:09;103754.72;;;1.50;100.00
64933;BME280;51446;53.850;10.662;2023-01-23T06:59:35;103768.84;;;1.54;100.00
64933;BME280;51446;53.850;10.662;2023-01-23T07:02:00;103777.22;;;1.51;100.00
64933;BME280;51446;53.850;10.662;2023-01-23T07:04:26;103777.69;;;1.47;100.00
64933;BME280;51446;53.850;10.662;2023-01-23T07:06:51;103778.13;;;1.43;100.00
64933;BME280;51446;53.850;10.662;2023-01-23T07:09:16;103778.13;;;1.43;100.00
64933;BME280;51446;53.850;10.662;2023-01-23T07:11:41;103785.13;;;1.44;100.00
64933;BME280;51446;53.850;10.662;2023-01-23T07:14:06;103793.66;;;1.52;100.00
64933;BME280;51446;53.850;10.662;2023-01-23T07:16:32;103789.72;;;1.64;100.00
64933;BME280;51446;53.850;10.662;2023-01-23T07:18:59;103792.34;;;1.82;100.00
64933;BME280;51446;53.850;10.662;2023-01-23T07:21:25;103799.16;;;1.72;100.00
64933;BME280;51446;53.850;10.662;2023-01-23T07:23:50;103798.38;;;1.56;100.00
64933;BME280;51446;53.850;10.662;2023-01-23T07:26:16;103805.13;;;1.80;100.00
64933;BME280;51446;53.850;10.662;2023-01-23T07:28:41;103793.53;;;1.94;100.00
64933;BME280;51446;53.850;10.662;2023-01-23T07:31:07;103801.28;;;1.77;100.00
64933;BME280;51446;53.850;10.662;2023-01-23T07:33:32;103801.59;;;1.71;100.00
64933;BME280;51446;53.850;10.662;2023-01-23T07:35:58;103808.59;;;1.63;100.00
64933;BME280;51446;53.850;10.662;2023-01-23T07:38:23;103800.97;;;1.56;100.00
64933;BME280;51446;53.850;10.662;2023-01-23T07:40:50;103794.41;;;1.51;100.00
64933;BME280;51446;53.850;10.662;2023-01-23T07:43:15;103801.84;;;1.48;100.00
64933;BME280;51446;53.850;10.662;2023-01-23T07:45:41;103803.38;;;1.46;100.00
64933;BME280;51446;53.850;10.662;2023-01-23T07:48:07;103808.88;;;1.49;100.00
64933;BME280;51446;53.850;10.662;2023-01-23T07:50:32;103814.81;;;1.56;100.00
64933;BME280;51446;53.850;10.662;2023-01-23T07:52:57;103820.78;;;1.64;100.00
64933;BME280;51446;53.850;10.662;2023-01-23T07:55:22;103823.97;;;1.70;100.00
64933;BME280;51446;53.850;10.662;2023-01-23T07:57:48;103823.56;;;2.01;100.00
64933;BME280;51446;53.850;10.662;2023-01-23T08:00:14;103825.81;;;1.71;100.00
64933;BME280;51446;53.850;10.662;2023-01-23T08:02:39;103825.16;;;1.65;100.00
64933;BME280;51446;53.850;10.662;2023-01-23T08:05:04;103832.03;;;1.65;100.00
64933;BME280;51446;53.850;10.662;2023-01-23T08:07:30;103838.88;;;1.64;100.00
64933;BME280;51446;53.850;10.662;2023-01-23T08:09:55;103834.63;;;1.82;100.00
64933;BME280;51446;53.850;10.662;2023-01-23T08:12:21;103831.00;;;1.80;100.00
64933;BME280;51446;53.850;10.662;2023-01-23T08:14:46;103837.81;;;1.80;100.00
64933;BME280;51446;53.850;10.662;2023-01-23T08:17:12;103841.34;;;1.80;100.00
64933;BME280;51446;53.850;10.662;2023-01-23T08:19:38;103840.41;;;1.71;100.00
64933;BME280;51446;53.850;10.662;2023-01-23T08:22:03;103844.66;;;1.70;100.00
64933;BME280;51446;53.850;10.662;2023-01-23T08:24:28;103845.28;;;1.85;100.00
64933;BME280;51446;53.850;10.662;2023-01-23T08:26:54;103839.66;;;1.81;100.00
64933;BME280;51446;53.850;10.662;2023-01-23T08:29:19;103845.75;;;1.81;100.00
64933;BME280;51446;53.850;10.662;2023-01-23T08:31:44;103846.03;;;1.84;100.00
64933;BME280;51446;53.850;10.662;2023-01-23T08:34:09;103853.38;;;1.88;100.00
64933;BME280;51446;53.850;10.662;2023-01-23T08:36:35;103860.41;;;2.07;100.00
64933;BME280;51446;53.850;10.662;2023-01-23T08:39:00;103857.78;;;1.98;100.00
64933;BME280;51446;53.850;10.662;2023-01-23T08:41:25;103867.69;;;1.94;100.00
64933;BME280;51446;53.850;10.662;2023-01-23T08:43:50;103866.88;;;1.77;100.00
64933;BME280;51446;53.850;10.662;2023-01-23T08:46:16;103869.16;;;1.74;100.00
64933;BME280;51446;53.850;10.662;2023-01-23T08:48:41;103867.53;;;1.83;100.00
64933;BME280;51446;53.850;10.662;2023-01-23T08:51:11;103867.22;;;1.80;100.00
64933;BME280;51446;53.850;10.662;2023-01-23T08:53:37;103873.78;;;1.94;100.00
64933;BME280;51446;53.850;10.662;2023-01-23T08:56:09;103877.63;;;2.06;100.00
64933;BME280;51446;53.850;10.662;2023-01-23T08:58:37;103875.03;;;2.06;100.00
64933;BME280;51446;53.850;10.662;2023-01-23T09:01:02;103878.22;;;2.04;100.00
64933;BME280;51446;53.850;10.662;2023-01-23T09:03:27;103871.03;;;1.93;100.00
64933;BME280;51446;53.850;10.662;2023-01-23T09:05:53;103877.16;;;2.02;100.00
64933;BME280;51446;53.850;10.662;2023-01-23T09:08:18;103880.78;;;1.95;100.00
64933;BME280;51446;53.850;10.662;2023-01-23T09:10:43;103875.63;;;1.95;100.00
64933;BME280;51446;53.850;10.662;2023-01-23T09:13:09;103879.09;;;1.96;100.00
64933;BME280;51446;53.850;10.662;2023-01-23T09:15:37;103878.50;;;2.07;100.00
64933;BME280;51446;53.850;10.662;2023-01-23T09:18:03;103883.84;;;2.08;100.00
64933;BME280;51446;53.850;10.662;2023-01-23T09:20:28;103890.41;;;2.14;100.00
64933;BME280;51446;53.850;10.662;2023-01-23T09:22:54;103887.22;;;2.16;100.00
64933;BME280;51446;53.850;10.662;2023-01-23T09:25:19;103883.09;;;2.18;100.00
64933;BME280;51446;53.850;10.662;2023-01-23T09:27:45;103887.53;;;2.28;100.00
64933;BME280;51446;53.850;10.662;2023-01-23T09:30:10;103881.56;;;2.20;100.00
64933;BME280;51446;53.850;10.662;2023-01-23T09:32:36;103886.59;;;2.28;100.00
64933;BME280;51446;53.850;10.662;2023-01-23T09:35:01;103886.13;;;2.14;100.00
64933;BME280;51446;53.850;10.662;2023-01-23T09:37:30;103893.16;;;2.06;100.00
64933;BME280;51446;53.850;10.662;2023-01-23T09:40:20;103885.25;;;2.22;100.00
64933;BME280;51446;53.850;10.662;2023-01-23T09:42:48;103890.28;;;2.30;100.00
64933;BME280;51446;53.850;10.662;2023-01-23T09:45:20;103887.84;;;2.31;100.00
64933;BME280;51446;53.850;10.662;2023-01-23T09:47:52;103882.34;;;2.37;100.00
64933;BME280;51446;53.850;10.662;2023-01-23T09:50:31;103883.84;;;2.35;100.00
64933;BME280;51446;53.850;10.662;2023-01-23T09:53:00;103885.09;;;2.47;100.00
64933;BME280;51446;53.850;10.662;2023-01-23T09:55:42;103880.81;;;2.30;100.00
64933;BME280;51446;53.850;10.662;2023-01-23T09:58:25;103889.81;;;2.51;100.00
64933;BME280;51446;53.850;10.662;2023-01-23T10:00:52;103876.88;;;2.51;100.00
64933;BME280;51446;53.850;10.662;2023-01-23T10:03:18;103881.91;;;2.41;100.00
64933;BME280;51446;53.850;10.662;2023-01-23T10:06:03;103882.94;;;2.25;100.00
64933;BME280;51446;53.850;10.662;2023-01-23T10:08:55;103875.94;;;2.33;100.00
64933;BME280;51446;53.850;10.662;2023-01-23T10:17:17;103853.69;;;2.62;100.00
64933;BME280;51446;53.850;10.662;2023-01-23T10:19:55;103855.84;;;2.48;100.00
64933;BME280;51446;53.850;10.662;2023-01-23T10:25:43;103848.66;;;2.63;100.00
64933;BME280;51446;53.850;10.662;2023-01-23T10:28:31;103848.63;;;2.72;100.00
64933;BME280;51446;53.850;10.662;2023-01-23T10:31:01;103852.03;;;2.36;100.00
64933;BME280;51446;53.850;10.662;2023-01-23T10:33:35;103847.75;;;2.63;100.00
64933;BME280;51446;53.850;10.662;2023-01-23T10:36:09;103849.69;;;2.83;100.00
64933;BME280;51446;53.850;10.662;2023-01-23T10:38:59;103843.53;;;2.91;100.00
64933;BME280;51446;53.850;10.662;2023-01-23T10:41:26;103854.25;;;2.94;100.00
64933;BME280;51446;53.850;10.662;2023-01-23T10:43:53;103852.13;;;2.90;100.00
64933;BME280;51446;53.850;10.662;2023-01-23T10:46:21;103855.00;;;2.93;100.00
64933;BME280;51446;53.850;10.662;2023-01-23T10:48:49;103855.72;;;3.01;100.00
64933;BME280;51446;53.850;10.662;2023-01-23T10:56:35;103856.03;;;2.95;100.00
64933;BME280;51446;53.850;10.662;2023-01-23T10:59:02;103863.63;;;3.11;100.00
64933;BME280;51446;53.850;10.662;2023-01-23T11:01:31;103864.13;;;3.07;100.00
64933;BME280;51446;53.850;10.662;2023-01-23T11:04:08;103874.50;;;3.07;100.00
64933;BME280;51446;53.850;10.662;2023-01-23T11:06:34;103859.53;;;3.04;100.00
64933;BME280;51446;53.850;10.662;2023-01-23T11:09:00;103853.59;;;2.97;100.00
64933;BME280;51446;53.850;10.662;2023-01-23T11:11:31;103854.22;;;3.03;100.00
64933;BME280;51446;53.850;10.662;2023-01-23T11:14:13;103858.50;;;2.93;100.00
64933;BME280;51446;53.850;10.662;2023-01-23T11:16:41;103861.53;;;3.07;100.00
64933;BME280;51446;53.850;10.662;2023-01-23T11:21:34;103849.16;;;3.04;100.00
64933;BME280;51446;53.850;10.662;2023-01-23T11:24:18;103857.38;;;3.09;100.00
64933;BME280;51446;53.850;10.662;2023-01-23T11:26:43;103861.81;;;3.10;100.00
64933;BME280;51446;53.850;10.662;2023-01-23T11:29:23;103861.16;;;3.12;100.00
64933;BME280;51446;53.850;10.662;2023-01-23T11:32:12;103865.41;;;3.21;100.00
64933;BME280;51446;53.850;10.662;2023-01-23T11:34:47;103869.88;;;3.13;100.00
64933;BME280;51446;53.850;10.662;2023-01-23T11:37:19;103861.63;;;3.17;100.00
64933;BME280;51446;53.850;10.662;2023-01-23T11:39:54;103858.47;;;3.02;100.00
64933;BME280;51446;53.850;10.662;2023-01-23T11:42:23;103857.75;;;2.86;100.00
64933;BME280;51446;53.850;10.662;2023-01-23T11:44:50;103869.75;;;3.03;100.00
64933;BME280;51446;53.850;10.662;2023-01-23T11:47:44;103870.09;;;2.88;100.00
64933;BME280;51446;53.850;10.662;2023-01-23T11:50:24;103861.38;;;2.97;100.00
64933;BME280;51446;53.850;10.662;2023-01-23T11:53:00;103862.44;;;2.99;100.00
64933;BME280;51446;53.850;10.662;2023-01-23T11:58:25;103881.22;;;2.96;100.00
64933;BME280;51446;53.850;10.662;2023-01-23T12:01:07;103871.75;;;2.88;100.00
64933;BME280;51446;53.850;10.662;2023-01-23T12:03:58;103879.56;;;2.79;100.00
64933;BME280;51446;53.850;10.662;2023-01-23T12:07:07;103887.03;;;2.85;100.00
64933;BME280;51446;53.850;10.662;2023-01-23T12:17:40;103894.66;;;2.74;100.00
64933;BME280;51446;53.850;10.662;2023-01-23T12:22:49;103892.78;;;2.91;100.00
64933;BME280;51446;53.850;10.662;2023-01-23T12:25:36;103894.78;;;2.85;100.00
64933;BME280;51446;53.850;10.662;2023-01-23T12:28:15;103899.78;;;3.01;100.00
64933;BME280;51446;53.850;10.662;2023-01-23T12:30:48;103880.19;;;2.85;100.00
64933;BME280;51446;53.850;10.662;2023-01-23T12:33:44;103885.19;;;2.84;100.00
64933;BME280;51446;53.850;10.662;2023-01-23T12:36:33;103883.69;;;2.77;100.00
64933;BME280;51446;53.850;10.662;2023-01-23T12:41:51;103889.91;;;2.88;100.00
64933;BME280;51446;53.850;10.662;2023-01-23T12:44:40;103884.56;;;2.86;100.00
64933;BME280;51446;53.850;10.662;2023-01-23T12:47:12;103899.50;;;2.98;100.00
64933;BME280;51446;53.850;10.662;2023-01-23T12:49:56;103896.50;;;2.84;100.00
64933;BME280;51446;53.850;10.662;2023-01-23T12:52:35;103898.63;;;2.88;100.00
64933;BME280;51446;53.850;10.662;2023-01-23T12:57:37;103886.97;;;3.02;100.00
64933;BME280;51446;53.850;10.662;2023-01-23T13:00:38;103893.72;;;2.91;100.00
64933;BME280;51446;53.850;10.662;2023-01-23T13:09:23;103881.06;;;2.94;100.00
64933;BME280;51446;53.850;10.662;2023-01-23T13:12:03;103884.22;;;3.09;100.00
64933;BME280;51446;53.850;10.662;2023-01-23T13:16:56;103892.34;;;2.95;100.00
64933;BME280;51446;53.850;10.662;2023-01-23T13:19:26;103884.44;;;2.85;100.00
64933;BME280;51446;53.850;10.662;2023-01-23T13:24:49;103891.47;;;2.77;100.00
64933;BME280;51446;53.850;10.662;2023-01-23T13:30:33;103888.56;;;2.83;100.00
64933;BME280;51446;53.850;10.662;2023-01-23T13:32:57;103892.03;;;2.92;100.00
64933;BME280;51446;53.850;10.662;2023-01-23T13:38:28;103891.00;;;2.90;100.00
64933;BME280;51446;53.850;10.662;2023-01-23T13:46:44;103898.28;;;3.03;100.00
64933;BME280;51446;53.850;10.662;2023-01-23T13:52:18;103901.34;;;2.99;100.00
64933;BME280;51446;53.850;10.662;2023-01-23T13:55:23;103903.00;;;3.07;100.00